PWSweather.com
Personal Weather Stations
Station Observations
WXGLH1124
Southern Oaks, Indianapolis, IN 46217

Southern OaksIndianapolis, IN 46217

Lat: 39.65113, Lon: -86.16866

Elevation: 720

Station Type: Vantage Pro2

Latest ConditionsUpdated 3:20:03 PM EDT Saturday, Apr 20, 2019
Currently Today's Max Today's Min Today's Average
Temperature 43.9°F6.6°C 44.5°F6.9°C 41.4°F5.2°C 42.7°F5.9°C
Dew Point 40.9°F4.9°C 40.9°F4.9°C 38.4°F3.6°C 39.1°F3.9°C
Winds 7.0 mph NNE11.3 kmh NNE 19.0 mph -30.6 kmh - - 6.6 mph 10.6 kmh
Wind Gusts 7.0 mph11.3 kmh 19.0 mph30.6 kmh - -
Humidity 89% 91% 81% 87%
Pressure 29.77 in1008.1 mb 29.77 in1008.1 mb 29.57 in1001.4 mb -
Hour Temp Dew Point Humidity Winds Wind Gusts Pressure Precip Precip Rate Daily Precip Total
03:20 PM 43.9°F6.6°C 40.9°F4.9°C 89% 7.0 mph NNE11.3 kmh NNE 7.0 mph11.3 kmh 29.77 in1008.1 mb 0.00 in0.0 mm 0.00 in0.0 mm 0.03 in0.8 mm
03:15 PM 43.8°F6.6°C 40.8°F4.9°C 89% 5.0 mph N8.0 kmh N 8.0 mph12.9 kmh 29.77 in1008.1 mb 0.00 in0.0 mm 0.00 in0.0 mm 0.03 in0.8 mm
03:10 PM 43.7°F6.5°C 40.4°F4.7°C 88% 5.0 mph N8.0 kmh N 5.0 mph8.0 kmh 29.77 in1008.1 mb 0.00 in0.0 mm 0.00 in0.0 mm 0.03 in0.8 mm
03:05 PM 43.6°F6.4°C 40.3°F4.6°C 88% 7.0 mph NNE11.3 kmh NNE 7.0 mph11.3 kmh 29.77 in1008.1 mb 0.00 in0.0 mm 0.00 in0.0 mm 0.03 in0.8 mm
03:00 PM 43.6°F6.4°C 40.3°F4.6°C 88% 4.0 mph NE6.4 kmh NE 8.0 mph12.9 kmh 29.77 in1008.1 mb 0.00 in0.0 mm 0.00 in0.0 mm 0.03 in0.8 mm
02:55 PM 43.6°F6.4°C 40.6°F4.8°C 89% 8.0 mph N12.9 kmh N 12.0 mph19.3 kmh 29.77 in1008.1 mb 0.00 in0.0 mm 0.00 in0.0 mm 0.03 in0.8 mm
02:50 PM 43.4°F6.3°C 40.4°F4.7°C 89% 5.0 mph N8.0 kmh N 11.0 mph17.7 kmh 29.76 in1007.8 mb 0.00 in0.0 mm 0.00 in0.0 mm 0.03 in0.8 mm
02:45 PM 43.5°F6.4°C 40.8°F4.9°C 90% 5.0 mph NW8.0 kmh NW 5.0 mph8.0 kmh 29.76 in1007.8 mb 0.00 in0.0 mm 0.00 in0.0 mm 0.03 in0.8 mm
02:40 PM 43.5°F6.4°C 40.8°F4.9°C 90% 6.0 mph N9.7 kmh N 9.0 mph14.5 kmh 29.76 in1007.8 mb 0.01 in0.3 mm 0.00 in0.0 mm 0.03 in0.8 mm
02:34 PM 43.4°F6.3°C 40.7°F4.8°C 90% 2.0 mph NNE3.2 kmh NNE 3.0 mph4.8 kmh 29.76 in1007.8 mb 0.01 in0.3 mm 0.00 in0.0 mm 0.03 in0.8 mm
02:30 PM 43.2°F6.2°C 40.5°F4.7°C 90% 5.0 mph N8.0 kmh N 5.0 mph8.0 kmh 29.76 in1007.8 mb 0.01 in0.3 mm 0.00 in0.0 mm 0.03 in0.8 mm
02:25 PM 43.3°F6.3°C 40.6°F4.8°C 90% 6.0 mph NNW9.7 kmh NNW 9.0 mph14.5 kmh 29.76 in1007.8 mb 0.01 in0.3 mm 0.00 in0.0 mm 0.03 in0.8 mm
02:20 PM 43.2°F6.2°C 40.5°F4.7°C 90% 3.0 mph NE4.8 kmh NE 5.0 mph8.0 kmh 29.76 in1007.8 mb 0.01 in0.3 mm 0.00 in0.0 mm 0.03 in0.8 mm
02:15 PM 43.1°F6.2°C 40.4°F4.7°C 90% 4.0 mph N6.4 kmh N 5.0 mph8.0 kmh 29.76 in1007.8 mb 0.01 in0.3 mm 0.00 in0.0 mm 0.03 in0.8 mm
02:10 PM 43.2°F6.2°C 40.5°F4.7°C 90% 5.0 mph ENE8.0 kmh ENE 5.0 mph8.0 kmh 29.76 in1007.8 mb 0.01 in0.3 mm 0.00 in0.0 mm 0.03 in0.8 mm
02:05 PM 43.1°F6.2°C 40.1°F4.5°C 89% 3.0 mph NE4.8 kmh NE 8.0 mph12.9 kmh 29.76 in1007.8 mb 0.01 in0.3 mm 0.00 in0.0 mm 0.03 in0.8 mm
02:00 PM 43.0°F6.1°C 40.0°F4.4°C 89% 4.0 mph NE6.4 kmh NE 11.0 mph17.7 kmh 29.75 in1007.5 mb 0.01 in0.3 mm 0.00 in0.0 mm 0.03 in0.8 mm
01:55 PM 42.9°F6.1°C 39.9°F4.4°C 89% 5.0 mph NNE8.0 kmh NNE 6.0 mph9.7 kmh 29.75 in1007.5 mb 0.01 in0.3 mm 0.00 in0.0 mm 0.03 in0.8 mm
01:50 PM 42.9°F6.1°C 40.2°F4.6°C 90% 3.0 mph N4.8 kmh N 5.0 mph8.0 kmh 29.75 in1007.5 mb 0.01 in0.3 mm 0.00 in0.0 mm 0.03 in0.8 mm
01:45 PM 42.9°F6.1°C 40.2°F4.6°C 90% 5.0 mph N8.0 kmh N 10.0 mph16.1 kmh 29.75 in1007.5 mb 0.01 in0.3 mm 0.00 in0.0 mm 0.03 in0.8 mm
01:40 PM 42.5°F5.8°C 39.5°F4.2°C 89% 3.0 mph N4.8 kmh N 6.0 mph9.7 kmh 29.75 in1007.5 mb 0.01 in0.3 mm 0.10 in2.5 mm 0.03 in0.8 mm
01:34 PM 42.4°F5.8°C 39.4°F4.1°C 89% 4.0 mph NW6.4 kmh NW 8.0 mph12.9 kmh 29.75 in1007.5 mb 0.00 in0.0 mm 0.00 in0.0 mm 0.02 in0.5 mm
01:30 PM 42.4°F5.8°C 39.4°F4.1°C 89% 8.0 mph N12.9 kmh N 8.0 mph12.9 kmh 29.75 in1007.5 mb 0.00 in0.0 mm 0.00 in0.0 mm 0.02 in0.5 mm
01:25 PM 42.5°F5.8°C 39.5°F4.2°C 89% 8.0 mph N12.9 kmh N 11.0 mph17.7 kmh 29.75 in1007.5 mb 0.00 in0.0 mm 0.00 in0.0 mm 0.02 in0.5 mm
01:20 PM 42.6°F5.9°C 39.6°F4.2°C 89% 5.0 mph N8.0 kmh N 6.0 mph9.7 kmh 29.75 in1007.5 mb 0.00 in0.0 mm 0.00 in0.0 mm 0.02 in0.5 mm
01:15 PM 42.4°F5.8°C 39.4°F4.1°C 89% 5.0 mph N8.0 kmh N 11.0 mph17.7 kmh 29.74 in1007.1 mb 0.00 in0.0 mm 0.00 in0.0 mm 0.02 in0.5 mm
01:10 PM 42.5°F5.8°C 39.8°F4.3°C 90% 11.0 mph N17.7 kmh N 11.0 mph17.7 kmh 29.74 in1007.1 mb 0.00 in0.0 mm 0.00 in0.0 mm 0.02 in0.5 mm
01:04 PM 42.5°F5.8°C 39.8°F4.3°C 90% 4.0 mph N6.4 kmh N 6.0 mph9.7 kmh 29.74 in1007.1 mb 0.00 in0.0 mm 0.00 in0.0 mm 0.02 in0.5 mm
01:00 PM 42.2°F5.7°C 39.5°F4.2°C 90% 3.0 mph NW4.8 kmh NW 5.0 mph8.0 kmh 29.74 in1007.1 mb 0.00 in0.0 mm 0.00 in0.0 mm 0.02 in0.5 mm
12:55 PM 42.2°F5.7°C 39.5°F4.2°C 90% 5.0 mph NNW8.0 kmh NNW 6.0 mph9.7 kmh 29.74 in1007.1 mb 0.00 in0.0 mm 0.00 in0.0 mm 0.02 in0.5 mm
12:50 PM 42.3°F5.7°C 39.6°F4.2°C 90% 6.0 mph NNW9.7 kmh NNW 6.0 mph9.7 kmh 29.74 in1007.1 mb 0.00 in0.0 mm 0.00 in0.0 mm 0.02 in0.5 mm
12:45 PM 42.2°F5.7°C 39.5°F4.2°C 90% 3.0 mph NE4.8 kmh NE 6.0 mph9.7 kmh 29.74 in1007.1 mb 0.00 in0.0 mm 0.00 in0.0 mm 0.02 in0.5 mm
12:40 PM 42.1°F5.6°C 39.1°F3.9°C 89% 8.0 mph N12.9 kmh N 11.0 mph17.7 kmh 29.74 in1007.1 mb 0.00 in0.0 mm 0.00 in0.0 mm 0.02 in0.5 mm
12:35 PM 42.2°F5.7°C 39.5°F4.2°C 90% 3.0 mph NNW4.8 kmh NNW 6.0 mph9.7 kmh 29.74 in1007.1 mb 0.00 in0.0 mm 0.00 in0.0 mm 0.02 in0.5 mm
12:30 PM 42.2°F5.7°C 39.5°F4.2°C 90% 6.0 mph N9.7 kmh N 6.0 mph9.7 kmh 29.74 in1007.1 mb 0.00 in0.0 mm 0.00 in0.0 mm 0.02 in0.5 mm
12:25 PM 42.0°F5.6°C 39.3°F4.1°C 90% 5.0 mph N8.0 kmh N 9.0 mph14.5 kmh 29.74 in1007.1 mb 0.00 in0.0 mm 0.00 in0.0 mm 0.02 in0.5 mm
12:20 PM 42.0°F5.6°C 39.3°F4.1°C 90% 6.0 mph NNW9.7 kmh NNW 9.0 mph14.5 kmh 29.73 in1006.8 mb 0.00 in0.0 mm 0.00 in0.0 mm 0.02 in0.5 mm
12:15 PM 41.8°F5.4°C 39.1°F3.9°C 90% 6.0 mph N9.7 kmh N 9.0 mph14.5 kmh 29.73 in1006.8 mb 0.00 in0.0 mm 0.00 in0.0 mm 0.02 in0.5 mm
12:10 PM 41.9°F5.5°C 39.2°F4.0°C 90% 6.0 mph N9.7 kmh N 11.0 mph17.7 kmh 29.73 in1006.8 mb 0.00 in0.0 mm 0.00 in0.0 mm 0.02 in0.5 mm
12:05 PM 41.9°F5.5°C 38.9°F3.8°C 89% 8.0 mph NNW12.9 kmh NNW 9.0 mph14.5 kmh 29.73 in1006.8 mb 0.00 in0.0 mm 0.00 in0.0 mm 0.02 in0.5 mm
12:00 PM 42.2°F5.7°C 39.2°F4.0°C 89% 8.0 mph NW12.9 kmh NW 8.0 mph12.9 kmh 29.73 in1006.8 mb 0.00 in0.0 mm 0.00 in0.0 mm 0.02 in0.5 mm
11:55 AM 42.3°F5.7°C 39.6°F4.2°C 90% 7.0 mph NE11.3 kmh NE 8.0 mph12.9 kmh 29.73 in1006.8 mb 0.00 in0.0 mm 0.00 in0.0 mm 0.02 in0.5 mm
11:50 AM 42.3°F5.7°C 39.3°F4.1°C 89% 5.0 mph N8.0 kmh N 11.0 mph17.7 kmh 29.72 in1006.4 mb 0.00 in0.0 mm 0.00 in0.0 mm 0.02 in0.5 mm
11:45 AM 42.4°F5.8°C 39.7°F4.3°C 90% 9.0 mph NW14.5 kmh NW 9.0 mph14.5 kmh 29.72 in1006.4 mb 0.00 in0.0 mm 0.00 in0.0 mm 0.02 in0.5 mm
11:40 AM 42.4°F5.8°C 39.7°F4.3°C 90% 9.0 mph NNW14.5 kmh NNW 10.0 mph16.1 kmh 29.72 in1006.4 mb 0.00 in0.0 mm 0.00 in0.0 mm 0.02 in0.5 mm
11:35 AM 42.4°F5.8°C 39.7°F4.3°C 90% 8.0 mph N12.9 kmh N 8.0 mph12.9 kmh 29.72 in1006.4 mb 0.00 in0.0 mm 0.00 in0.0 mm 0.02 in0.5 mm
11:29 AM 42.5°F5.8°C 39.8°F4.3°C 90% 5.0 mph N8.0 kmh N 5.0 mph8.0 kmh 29.71 in1006.1 mb 0.00 in0.0 mm 0.00 in0.0 mm 0.02 in0.5 mm
11:25 AM 42.4°F5.8°C 39.7°F4.3°C 90% 5.0 mph NNW8.0 kmh NNW 6.0 mph9.7 kmh 29.71 in1006.1 mb 0.00 in0.0 mm 0.00 in0.0 mm 0.02 in0.5 mm
11:20 AM 42.2°F5.7°C 39.2°F4.0°C 89% 1.0 mph N1.6 kmh N 4.0 mph6.4 kmh 29.71 in1006.1 mb 0.00 in0.0 mm 0.00 in0.0 mm 0.02 in0.5 mm
11:14 AM 42.2°F5.7°C 39.2°F4.0°C 89% 4.0 mph NNE6.4 kmh NNE 8.0 mph12.9 kmh 29.71 in1006.1 mb 0.00 in0.0 mm 0.00 in0.0 mm 0.02 in0.5 mm
11:09 AM 42.2°F5.7°C 39.5°F4.2°C 90% 4.0 mph NNW6.4 kmh NNW 5.0 mph8.0 kmh 29.71 in1006.1 mb 0.00 in0.0 mm 0.00 in0.0 mm 0.02 in0.5 mm
11:04 AM 42.0°F5.6°C 39.0°F3.9°C 89% 7.0 mph NNE11.3 kmh NNE 9.0 mph14.5 kmh 29.70 in1005.8 mb 0.00 in0.0 mm 0.00 in0.0 mm 0.02 in0.5 mm
10:59 AM 41.9°F5.5°C 38.9°F3.8°C 89% 9.0 mph N14.5 kmh N 11.0 mph17.7 kmh 29.70 in1005.8 mb 0.00 in0.0 mm 0.00 in0.0 mm 0.02 in0.5 mm
10:55 AM 41.8°F5.4°C 38.8°F3.8°C 89% 5.0 mph NNW8.0 kmh NNW 14.0 mph22.5 kmh 29.70 in1005.8 mb 0.00 in0.0 mm 0.00 in0.0 mm 0.02 in0.5 mm
10:50 AM 41.8°F5.4°C 38.8°F3.8°C 89% 11.0 mph NNE17.7 kmh NNE 11.0 mph17.7 kmh 29.69 in1005.4 mb 0.01 in0.3 mm 0.00 in0.0 mm 0.02 in0.5 mm
10:45 AM 42.0°F5.6°C 39.3°F4.1°C 90% 7.0 mph N11.3 kmh N 7.0 mph11.3 kmh 29.69 in1005.4 mb 0.01 in0.3 mm 0.00 in0.0 mm 0.02 in0.5 mm
10:40 AM 41.9°F5.5°C 39.2°F4.0°C 90% 4.0 mph N6.4 kmh N 8.0 mph12.9 kmh 29.69 in1005.4 mb 0.01 in0.3 mm 0.00 in0.0 mm 0.02 in0.5 mm
10:35 AM 41.8°F5.4°C 39.1°F3.9°C 90% 5.0 mph NNE8.0 kmh NNE 9.0 mph14.5 kmh 29.69 in1005.4 mb 0.01 in0.3 mm 0.00 in0.0 mm 0.02 in0.5 mm
10:30 AM 41.7°F5.4°C 39.0°F3.9°C 90% 8.0 mph N12.9 kmh N 8.0 mph12.9 kmh 29.69 in1005.4 mb 0.01 in0.3 mm 0.00 in0.0 mm 0.02 in0.5 mm
10:25 AM 41.7°F5.4°C 39.0°F3.9°C 90% 4.0 mph NNW6.4 kmh NNW 4.0 mph6.4 kmh 29.69 in1005.4 mb 0.01 in0.3 mm 0.00 in0.0 mm 0.02 in0.5 mm
10:19 AM 41.6°F5.3°C 38.9°F3.8°C 90% 9.0 mph NW14.5 kmh NW 9.0 mph14.5 kmh 29.69 in1005.4 mb 0.01 in0.3 mm 0.00 in0.0 mm 0.02 in0.5 mm
10:15 AM 41.5°F5.3°C 38.8°F3.8°C 90% 1.0 mph N1.6 kmh N 3.0 mph4.8 kmh 29.69 in1005.4 mb 0.01 in0.3 mm 0.00 in0.0 mm 0.02 in0.5 mm
10:09 AM 41.5°F5.3°C 38.5°F3.6°C 89% 9.0 mph NNW14.5 kmh NNW 10.0 mph16.1 kmh 29.68 in1005.1 mb 0.01 in0.3 mm 0.00 in0.0 mm 0.02 in0.5 mm
10:04 AM 41.5°F5.3°C 38.8°F3.8°C 90% 6.0 mph NNW9.7 kmh NNW 10.0 mph16.1 kmh 29.68 in1005.1 mb 0.01 in0.3 mm 0.00 in0.0 mm 0.02 in0.5 mm
10:00 AM 41.7°F5.4°C 39.0°F3.9°C 90% 8.0 mph N12.9 kmh N 8.0 mph12.9 kmh 29.68 in1005.1 mb 0.01 in0.3 mm 0.00 in0.0 mm 0.02 in0.5 mm
09:55 AM 41.7°F5.4°C 39.0°F3.9°C 90% 8.0 mph NNW12.9 kmh NNW 8.0 mph12.9 kmh 29.67 in1004.7 mb 0.01 in0.3 mm 0.12 in3.0 mm 0.02 in0.5 mm
09:50 AM 41.8°F5.4°C 39.1°F3.9°C 90% 5.0 mph NNE8.0 kmh NNE 9.0 mph14.5 kmh 29.67 in1004.7 mb 0.00 in0.0 mm 0.00 in0.0 mm 0.01 in0.3 mm
09:45 AM 41.8°F5.4°C 39.1°F3.9°C 90% 4.0 mph N6.4 kmh N 5.0 mph8.0 kmh 29.67 in1004.7 mb 0.00 in0.0 mm 0.00 in0.0 mm 0.01 in0.3 mm
09:40 AM 41.8°F5.4°C 39.1°F3.9°C 90% 9.0 mph NNE14.5 kmh NNE 9.0 mph14.5 kmh 29.67 in1004.7 mb 0.00 in0.0 mm 0.00 in0.0 mm 0.01 in0.3 mm
09:35 AM 41.7°F5.4°C 39.0°F3.9°C 90% 2.0 mph N3.2 kmh N 5.0 mph8.0 kmh 29.67 in1004.7 mb 0.00 in0.0 mm 0.00 in0.0 mm 0.01 in0.3 mm
09:29 AM 41.7°F5.4°C 39.0°F3.9°C 90% 6.0 mph N9.7 kmh N 7.0 mph11.3 kmh 29.66 in1004.4 mb 0.00 in0.0 mm 0.00 in0.0 mm 0.01 in0.3 mm
09:24 AM 41.7°F5.4°C 39.0°F3.9°C 90% 5.0 mph NW8.0 kmh NW 6.0 mph9.7 kmh 29.66 in1004.4 mb 0.00 in0.0 mm 0.00 in0.0 mm 0.01 in0.3 mm
09:20 AM 41.8°F5.4°C 39.4°F4.1°C 91% 5.0 mph N8.0 kmh N 9.0 mph14.5 kmh 29.66 in1004.4 mb 0.00 in0.0 mm 0.00 in0.0 mm 0.01 in0.3 mm
09:15 AM 41.7°F5.4°C 39.3°F4.1°C 91% 6.0 mph N9.7 kmh N 6.0 mph9.7 kmh 29.66 in1004.4 mb 0.00 in0.0 mm 0.00 in0.0 mm 0.01 in0.3 mm
09:09 AM 41.6°F5.3°C 39.2°F4.0°C 91% 9.0 mph NNE14.5 kmh NNE 10.0 mph16.1 kmh 29.66 in1004.4 mb 0.00 in0.0 mm 0.00 in0.0 mm 0.01 in0.3 mm
09:05 AM 41.6°F5.3°C 39.2°F4.0°C 91% 5.0 mph N8.0 kmh N 8.0 mph12.9 kmh 29.66 in1004.4 mb 0.00 in0.0 mm 0.00 in0.0 mm 0.01 in0.3 mm
09:00 AM 41.6°F5.3°C 39.2°F4.0°C 91% 3.0 mph N4.8 kmh N 3.0 mph4.8 kmh 29.66 in1004.4 mb 0.00 in0.0 mm 0.00 in0.0 mm 0.01 in0.3 mm
08:55 AM 41.6°F5.3°C 39.2°F4.0°C 91% 5.0 mph N8.0 kmh N 13.0 mph20.9 kmh 29.66 in1004.4 mb 0.00 in0.0 mm 0.00 in0.0 mm 0.01 in0.3 mm
08:50 AM 41.6°F5.3°C 39.2°F4.0°C 91% 2.0 mph N3.2 kmh N 4.0 mph6.4 kmh 29.65 in1004.1 mb 0.00 in0.0 mm 0.00 in0.0 mm 0.01 in0.3 mm
08:45 AM 41.5°F5.3°C 39.1°F3.9°C 91% 4.0 mph N6.4 kmh N 6.0 mph9.7 kmh 29.65 in1004.1 mb 0.00 in0.0 mm 0.00 in0.0 mm 0.01 in0.3 mm
08:40 AM 41.6°F5.3°C 39.2°F4.0°C 91% 5.0 mph NNW8.0 kmh NNW 5.0 mph8.0 kmh 29.65 in1004.1 mb 0.00 in0.0 mm 0.00 in0.0 mm 0.01 in0.3 mm
08:35 AM 41.6°F5.3°C 39.2°F4.0°C 91% 6.0 mph N9.7 kmh N 9.0 mph14.5 kmh 29.65 in1004.1 mb 0.00 in0.0 mm 0.00 in0.0 mm 0.01 in0.3 mm
08:29 AM 41.5°F5.3°C 39.1°F3.9°C 91% 3.0 mph N4.8 kmh N 4.0 mph6.4 kmh 29.65 in1004.1 mb 0.00 in0.0 mm 0.00 in0.0 mm 0.01 in0.3 mm
08:25 AM 41.6°F5.3°C 39.2°F4.0°C 91% 3.0 mph NE4.8 kmh NE 9.0 mph14.5 kmh 29.64 in1003.7 mb 0.00 in0.0 mm 0.00 in0.0 mm 0.01 in0.3 mm
08:20 AM 41.5°F5.3°C 39.1°F3.9°C 91% 2.0 mph N3.2 kmh N 5.0 mph8.0 kmh 29.64 in1003.7 mb 0.00 in0.0 mm 0.00 in0.0 mm 0.01 in0.3 mm
08:15 AM 41.5°F5.3°C 39.1°F3.9°C 91% 6.0 mph N9.7 kmh N 8.0 mph12.9 kmh 29.64 in1003.7 mb 0.00 in0.0 mm 0.00 in0.0 mm 0.01 in0.3 mm
08:10 AM 41.5°F5.3°C 39.1°F3.9°C 91% 5.0 mph NW8.0 kmh NW 5.0 mph8.0 kmh 29.64 in1003.7 mb 0.00 in0.0 mm 0.00 in0.0 mm 0.01 in0.3 mm
08:05 AM 41.5°F5.3°C 39.1°F3.9°C 91% 8.0 mph NNW12.9 kmh NNW 10.0 mph16.1 kmh 29.64 in1003.7 mb 0.00 in0.0 mm 0.00 in0.0 mm 0.01 in0.3 mm
07:59 AM 41.5°F5.3°C 39.1°F3.9°C 91% 4.0 mph NNE6.4 kmh NNE 9.0 mph14.5 kmh 29.63 in1003.4 mb 0.00 in0.0 mm 0.00 in0.0 mm 0.01 in0.3 mm
07:55 AM 41.5°F5.3°C 39.1°F3.9°C 91% 3.0 mph N4.8 kmh N 3.0 mph4.8 kmh 29.64 in1003.7 mb 0.00 in0.0 mm 0.00 in0.0 mm 0.01 in0.3 mm
07:49 AM 41.5°F5.3°C 39.1°F3.9°C 91% 3.0 mph N4.8 kmh N 5.0 mph8.0 kmh 29.64 in1003.7 mb 0.00 in0.0 mm 0.00 in0.0 mm 0.01 in0.3 mm
07:45 AM 41.5°F5.3°C 39.1°F3.9°C 91% 2.0 mph NNE3.2 kmh NNE 4.0 mph6.4 kmh 29.64 in1003.7 mb 0.00 in0.0 mm 0.00 in0.0 mm 0.01 in0.3 mm
07:40 AM 41.4°F5.2°C 39.0°F3.9°C 91% 8.0 mph NNW12.9 kmh NNW 11.0 mph17.7 kmh 29.64 in1003.7 mb 0.00 in0.0 mm 0.00 in0.0 mm 0.01 in0.3 mm
07:35 AM 41.5°F5.3°C 39.1°F3.9°C 91% 5.0 mph N8.0 kmh N 6.0 mph9.7 kmh 29.64 in1003.7 mb 0.00 in0.0 mm 0.00 in0.0 mm 0.01 in0.3 mm
07:30 AM 41.5°F5.3°C 39.1°F3.9°C 91% 3.0 mph NNE4.8 kmh NNE 5.0 mph8.0 kmh 29.64 in1003.7 mb 0.00 in0.0 mm 0.00 in0.0 mm 0.01 in0.3 mm
07:25 AM 41.5°F5.3°C 39.1°F3.9°C 91% 3.0 mph N4.8 kmh N 3.0 mph4.8 kmh 29.64 in1003.7 mb 0.00 in0.0 mm 0.00 in0.0 mm 0.01 in0.3 mm
07:19 AM 41.5°F5.3°C 39.1°F3.9°C 91% 6.0 mph N9.7 kmh N 6.0 mph9.7 kmh 29.63 in1003.4 mb 0.00 in0.0 mm 0.00 in0.0 mm 0.01 in0.3 mm
07:14 AM 41.5°F5.3°C 39.1°F3.9°C 91% 6.0 mph N9.7 kmh N 9.0 mph14.5 kmh 29.63 in1003.4 mb 0.00 in0.0 mm 0.00 in0.0 mm 0.01 in0.3 mm
07:09 AM 41.5°F5.3°C 38.8°F3.8°C 90% 1.0 mph N1.6 kmh N 1.0 mph1.6 kmh 29.63 in1003.4 mb 0.00 in0.0 mm 0.00 in0.0 mm 0.01 in0.3 mm
07:05 AM 41.6°F5.3°C 38.9°F3.8°C 90% 2.0 mph NNE3.2 kmh NNE 3.0 mph4.8 kmh 29.63 in1003.4 mb 0.00 in0.0 mm 0.00 in0.0 mm 0.01 in0.3 mm
07:00 AM 41.6°F5.3°C 38.9°F3.8°C 90% 3.0 mph N4.8 kmh N 5.0 mph8.0 kmh 29.63 in1003.4 mb 0.00 in0.0 mm 0.00 in0.0 mm 0.01 in0.3 mm
06:55 AM 41.6°F5.3°C 38.9°F3.8°C 90% 2.0 mph N3.2 kmh N 3.0 mph4.8 kmh 29.63 in1003.4 mb 0.00 in0.0 mm 0.00 in0.0 mm 0.01 in0.3 mm
06:49 AM 41.7°F5.4°C 39.0°F3.9°C 90% 5.0 mph NNE8.0 kmh NNE 5.0 mph8.0 kmh 29.62 in1003.0 mb 0.00 in0.0 mm 0.00 in0.0 mm 0.01 in0.3 mm
06:45 AM 41.7°F5.4°C 38.7°F3.7°C 89% 3.0 mph N4.8 kmh N 4.0 mph6.4 kmh 29.62 in1003.0 mb 0.00 in0.0 mm 0.00 in0.0 mm 0.01 in0.3 mm
06:40 AM 41.8°F5.4°C 38.8°F3.8°C 89% 3.0 mph N4.8 kmh N 5.0 mph8.0 kmh 29.62 in1003.0 mb 0.00 in0.0 mm 0.00 in0.0 mm 0.01 in0.3 mm
06:35 AM 41.8°F5.4°C 38.8°F3.8°C 89% 3.0 mph N4.8 kmh N 4.0 mph6.4 kmh 29.62 in1003.0 mb 0.00 in0.0 mm 0.00 in0.0 mm 0.01 in0.3 mm
06:30 AM 41.8°F5.4°C 38.8°F3.8°C 89% 5.0 mph NNE8.0 kmh NNE 7.0 mph11.3 kmh 29.62 in1003.0 mb 0.00 in0.0 mm 0.00 in0.0 mm 0.01 in0.3 mm
06:25 AM 41.9°F5.5°C 38.9°F3.8°C 89% 6.0 mph N9.7 kmh N 11.0 mph17.7 kmh 29.62 in1003.0 mb 0.00 in0.0 mm 0.00 in0.0 mm 0.01 in0.3 mm
06:20 AM 42.0°F5.6°C 38.7°F3.7°C 88% 5.0 mph N8.0 kmh N 7.0 mph11.3 kmh 29.62 in1003.0 mb 0.00 in0.0 mm 0.00 in0.0 mm 0.01 in0.3 mm
06:15 AM 42.1°F5.6°C 38.8°F3.8°C 88% 5.0 mph NNE8.0 kmh NNE 8.0 mph12.9 kmh 29.62 in1003.0 mb 0.01 in0.3 mm 0.00 in0.0 mm 0.01 in0.3 mm
06:10 AM 42.2°F5.7°C 38.6°F3.7°C 87% 4.0 mph NNE6.4 kmh NNE 6.0 mph9.7 kmh 29.61 in1002.7 mb 0.01 in0.3 mm 0.00 in0.0 mm 0.01 in0.3 mm
06:05 AM 42.3°F5.7°C 38.7°F3.7°C 87% 4.0 mph N6.4 kmh N 4.0 mph6.4 kmh 29.61 in1002.7 mb 0.01 in0.3 mm 0.00 in0.0 mm 0.01 in0.3 mm
06:00 AM 42.3°F5.7°C 38.7°F3.7°C 87% 2.0 mph NNE3.2 kmh NNE 9.0 mph14.5 kmh 29.61 in1002.7 mb 0.01 in0.3 mm 0.00 in0.0 mm 0.01 in0.3 mm
05:55 AM 42.4°F5.8°C 38.8°F3.8°C 87% 3.0 mph NE4.8 kmh NE 8.0 mph12.9 kmh 29.60 in1002.4 mb 0.01 in0.3 mm 0.00 in0.0 mm 0.01 in0.3 mm
05:50 AM 42.4°F5.8°C 38.5°F3.6°C 86% 9.0 mph NNE14.5 kmh NNE 10.0 mph16.1 kmh 29.60 in1002.4 mb 0.01 in0.3 mm 0.00 in0.0 mm 0.01 in0.3 mm
05:45 AM 42.5°F5.8°C 38.6°F3.7°C 86% 6.0 mph N9.7 kmh N 8.0 mph12.9 kmh 29.59 in1002.0 mb 0.01 in0.3 mm 0.00 in0.0 mm 0.01 in0.3 mm
05:39 AM 42.6°F5.9°C 38.7°F3.7°C 86% 2.0 mph NNE3.2 kmh NNE 5.0 mph8.0 kmh 29.58 in1001.7 mb 0.01 in0.3 mm 0.00 in0.0 mm 0.01 in0.3 mm
05:34 AM 42.7°F5.9°C 38.5°F3.6°C 85% 9.0 mph NNW14.5 kmh NNW 9.0 mph14.5 kmh 29.58 in1001.7 mb 0.01 in0.3 mm 0.00 in0.0 mm 0.01 in0.3 mm
05:30 AM 42.8°F6.0°C 38.9°F3.8°C 86% 18.0 mph N29.0 kmh N 18.0 mph29.0 kmh 29.57 in1001.4 mb 0.01 in0.3 mm 0.00 in0.0 mm 0.01 in0.3 mm
05:25 AM 42.9°F6.1°C 38.7°F3.7°C 85% 5.0 mph NNW8.0 kmh NNW 9.0 mph14.5 kmh 29.58 in1001.7 mb 0.01 in0.3 mm 0.00 in0.0 mm 0.01 in0.3 mm
05:20 AM 43.0°F6.1°C 38.8°F3.8°C 85% 4.0 mph N6.4 kmh N 11.0 mph17.7 kmh 29.58 in1001.7 mb 0.01 in0.3 mm 0.12 in3.0 mm 0.01 in0.3 mm
05:15 AM 43.2°F6.2°C 39.0°F3.9°C 85% 5.0 mph NNW8.0 kmh NNW 6.0 mph9.7 kmh 29.57 in1001.4 mb 0.00 in0.0 mm 0.00 in0.0 mm 0.00 in0.0 mm
05:10 AM 43.2°F6.2°C 38.7°F3.7°C 84% 7.0 mph N11.3 kmh N 9.0 mph14.5 kmh 29.58 in1001.7 mb 0.00 in0.0 mm 0.00 in0.0 mm 0.00 in0.0 mm
05:05 AM 43.1°F6.2°C 38.9°F3.8°C 85% 11.0 mph NNE17.7 kmh NNE 12.0 mph19.3 kmh 29.58 in1001.7 mb 0.00 in0.0 mm 0.00 in0.0 mm 0.00 in0.0 mm
05:00 AM 42.9°F6.1°C 38.7°F3.7°C 85% 9.0 mph N14.5 kmh N 10.0 mph16.1 kmh 29.58 in1001.7 mb 0.00 in0.0 mm 0.00 in0.0 mm 0.00 in0.0 mm
04:55 AM 42.9°F6.1°C 39.0°F3.9°C 86% 8.0 mph N12.9 kmh N 14.0 mph22.5 kmh 29.58 in1001.7 mb 0.00 in0.0 mm 0.00 in0.0 mm 0.00 in0.0 mm
04:50 AM 42.9°F6.1°C 39.0°F3.9°C 86% 6.0 mph NW9.7 kmh NW 9.0 mph14.5 kmh 29.58 in1001.7 mb 0.00 in0.0 mm 0.00 in0.0 mm 0.00 in0.0 mm
04:44 AM 42.9°F6.1°C 39.0°F3.9°C 86% 8.0 mph N12.9 kmh N 11.0 mph17.7 kmh 29.58 in1001.7 mb 0.00 in0.0 mm 0.00 in0.0 mm 0.00 in0.0 mm
04:39 AM 43.0°F6.1°C 38.8°F3.8°C 85% 15.0 mph NW24.1 kmh NW 15.0 mph24.1 kmh 29.58 in1001.7 mb 0.00 in0.0 mm 0.00 in0.0 mm 0.00 in0.0 mm
04:34 AM 43.1°F6.2°C 38.9°F3.8°C 85% 4.0 mph N6.4 kmh N 6.0 mph9.7 kmh 29.58 in1001.7 mb 0.00 in0.0 mm 0.00 in0.0 mm 0.00 in0.0 mm
04:30 AM 43.2°F6.2°C 38.7°F3.7°C 84% 8.0 mph NNE12.9 kmh NNE 9.0 mph14.5 kmh 29.59 in1002.0 mb 0.00 in0.0 mm 0.00 in0.0 mm 0.00 in0.0 mm
04:25 AM 43.4°F6.3°C 38.9°F3.8°C 84% 10.0 mph NNE16.1 kmh NNE 10.0 mph16.1 kmh 29.59 in1002.0 mb 0.00 in0.0 mm 0.00 in0.0 mm 0.00 in0.0 mm
04:20 AM 43.5°F6.4°C 38.7°F3.7°C 83% 5.0 mph NNW8.0 kmh NNW 9.0 mph14.5 kmh 29.59 in1002.0 mb 0.00 in0.0 mm 0.00 in0.0 mm 0.00 in0.0 mm
04:15 AM 43.6°F6.4°C 38.8°F3.8°C 83% 9.0 mph N14.5 kmh N 13.0 mph20.9 kmh 29.59 in1002.0 mb 0.00 in0.0 mm 0.00 in0.0 mm 0.00 in0.0 mm
04:10 AM 43.7°F6.5°C 38.6°F3.7°C 82% 9.0 mph N14.5 kmh N 15.0 mph24.1 kmh 29.59 in1002.0 mb 0.00 in0.0 mm 0.00 in0.0 mm 0.00 in0.0 mm
04:05 AM 43.7°F6.5°C 38.6°F3.7°C 82% 10.0 mph NNW16.1 kmh NNW 17.0 mph27.4 kmh 29.59 in1002.0 mb 0.00 in0.0 mm 0.00 in0.0 mm 0.00 in0.0 mm
04:00 AM 43.8°F6.6°C 38.7°F3.7°C 82% 2.0 mph NE3.2 kmh NE 8.0 mph12.9 kmh 29.60 in1002.4 mb 0.00 in0.0 mm 0.00 in0.0 mm 0.00 in0.0 mm
03:55 AM 43.8°F6.6°C 38.7°F3.7°C 82% 8.0 mph N12.9 kmh N 9.0 mph14.5 kmh 29.60 in1002.4 mb 0.00 in0.0 mm 0.00 in0.0 mm 0.00 in0.0 mm
03:50 AM 43.8°F6.6°C 38.7°F3.7°C 82% 12.0 mph N19.3 kmh N 14.0 mph22.5 kmh 29.60 in1002.4 mb 0.00 in0.0 mm 0.00 in0.0 mm 0.00 in0.0 mm
03:45 AM 43.8°F6.6°C 38.4°F3.6°C 81% 15.0 mph NNE24.1 kmh NNE 15.0 mph24.1 kmh 29.60 in1002.4 mb 0.00 in0.0 mm 0.00 in0.0 mm 0.00 in0.0 mm
03:40 AM 43.8°F6.6°C 38.7°F3.7°C 82% 8.0 mph N12.9 kmh N 11.0 mph17.7 kmh 29.60 in1002.4 mb 0.00 in0.0 mm 0.00 in0.0 mm 0.00 in0.0 mm
03:35 AM 43.7°F6.5°C 38.6°F3.7°C 82% 9.0 mph NNE14.5 kmh NNE 15.0 mph24.1 kmh 29.60 in1002.4 mb 0.00 in0.0 mm 0.00 in0.0 mm 0.00 in0.0 mm
03:30 AM 43.7°F6.5°C 38.6°F3.7°C 82% 13.0 mph NNW20.9 kmh NNW 13.0 mph20.9 kmh 29.60 in1002.4 mb 0.00 in0.0 mm 0.00 in0.0 mm 0.00 in0.0 mm
03:25 AM 43.7°F6.5°C 38.6°F3.7°C 82% 9.0 mph N14.5 kmh N 13.0 mph20.9 kmh 29.60 in1002.4 mb 0.00 in0.0 mm 0.00 in0.0 mm 0.00 in0.0 mm
03:20 AM 43.6°F6.4°C 38.5°F3.6°C 82% 5.0 mph N8.0 kmh N 7.0 mph11.3 kmh 29.60 in1002.4 mb 0.00 in0.0 mm 0.00 in0.0 mm 0.00 in0.0 mm
03:15 AM 43.6°F6.4°C 38.8°F3.8°C 83% 11.0 mph N17.7 kmh N 11.0 mph17.7 kmh 29.61 in1002.7 mb 0.00 in0.0 mm 0.00 in0.0 mm 0.00 in0.0 mm
03:10 AM 43.6°F6.4°C 38.8°F3.8°C 83% 6.0 mph NNW9.7 kmh NNW 12.0 mph19.3 kmh 29.61 in1002.7 mb 0.00 in0.0 mm 0.00 in0.0 mm 0.00 in0.0 mm
03:05 AM 43.6°F6.4°C 38.8°F3.8°C 83% 14.0 mph NE22.5 kmh NE 14.0 mph22.5 kmh 29.60 in1002.4 mb 0.00 in0.0 mm 0.00 in0.0 mm 0.00 in0.0 mm
03:00 AM 43.5°F6.4°C 38.7°F3.7°C 83% 11.0 mph NE17.7 kmh NE 18.0 mph29.0 kmh 29.60 in1002.4 mb 0.00 in0.0 mm 0.00 in0.0 mm 0.00 in0.0 mm
02:54 AM 43.5°F6.4°C 38.7°F3.7°C 83% 12.0 mph NE19.3 kmh NE 12.0 mph19.3 kmh 29.60 in1002.4 mb 0.00 in0.0 mm 0.00 in0.0 mm 0.00 in0.0 mm
02:50 AM 43.4°F6.3°C 38.6°F3.7°C 83% 8.0 mph N12.9 kmh N 12.0 mph19.3 kmh 29.61 in1002.7 mb 0.00 in0.0 mm 0.00 in0.0 mm 0.00 in0.0 mm
02:45 AM 43.4°F6.3°C 38.6°F3.7°C 83% 8.0 mph NNW12.9 kmh NNW 11.0 mph17.7 kmh 29.61 in1002.7 mb 0.00 in0.0 mm 0.00 in0.0 mm 0.00 in0.0 mm
02:40 AM 43.3°F6.3°C 38.8°F3.8°C 84% 5.0 mph N8.0 kmh N 12.0 mph19.3 kmh 29.61 in1002.7 mb 0.00 in0.0 mm 0.00 in0.0 mm 0.00 in0.0 mm
02:34 AM 43.3°F6.3°C 38.8°F3.8°C 84% 5.0 mph N8.0 kmh N 9.0 mph14.5 kmh 29.61 in1002.7 mb 0.00 in0.0 mm 0.00 in0.0 mm 0.00 in0.0 mm
02:30 AM 43.3°F6.3°C 38.8°F3.8°C 84% 10.0 mph NNE16.1 kmh NNE 12.0 mph19.3 kmh 29.62 in1003.0 mb 0.00 in0.0 mm 0.00 in0.0 mm 0.00 in0.0 mm
02:25 AM 43.4°F6.3°C 38.9°F3.8°C 84% 14.0 mph N22.5 kmh N 14.0 mph22.5 kmh 29.62 in1003.0 mb 0.00 in0.0 mm 0.00 in0.0 mm 0.00 in0.0 mm
02:20 AM 43.5°F6.4°C 38.7°F3.7°C 83% 10.0 mph N16.1 kmh N 11.0 mph17.7 kmh 29.62 in1003.0 mb 0.00 in0.0 mm 0.00 in0.0 mm 0.00 in0.0 mm
02:15 AM 43.6°F6.4°C 38.8°F3.8°C 83% 8.0 mph N12.9 kmh N 11.0 mph17.7 kmh 29.62 in1003.0 mb 0.00 in0.0 mm 0.00 in0.0 mm 0.00 in0.0 mm
02:10 AM 43.7°F6.5°C 38.9°F3.8°C 83% 9.0 mph N14.5 kmh N 11.0 mph17.7 kmh 29.62 in1003.0 mb 0.00 in0.0 mm 0.00 in0.0 mm 0.00 in0.0 mm
02:05 AM 43.8°F6.6°C 38.7°F3.7°C 82% 14.0 mph N22.5 kmh N 16.0 mph25.7 kmh 29.63 in1003.4 mb 0.00 in0.0 mm 0.00 in0.0 mm 0.00 in0.0 mm
02:00 AM 43.8°F6.6°C 38.7°F3.7°C 82% 8.0 mph N12.9 kmh N 12.0 mph19.3 kmh 29.63 in1003.4 mb 0.00 in0.0 mm 0.00 in0.0 mm 0.00 in0.0 mm
01:54 AM 43.9°F6.6°C 38.8°F3.8°C 82% 14.0 mph NNE22.5 kmh NNE 15.0 mph24.1 kmh 29.63 in1003.4 mb 0.00 in0.0 mm 0.00 in0.0 mm 0.00 in0.0 mm
01:50 AM 43.9°F6.6°C 38.8°F3.8°C 82% 13.0 mph NNE20.9 kmh NNE 15.0 mph24.1 kmh 29.63 in1003.4 mb 0.00 in0.0 mm 0.00 in0.0 mm 0.00 in0.0 mm
01:45 AM 43.9°F6.6°C 38.8°F3.8°C 82% 9.0 mph N14.5 kmh N 13.0 mph20.9 kmh 29.63 in1003.4 mb 0.00 in0.0 mm 0.00 in0.0 mm 0.00 in0.0 mm
01:40 AM 43.8°F6.6°C 38.7°F3.7°C 82% 5.0 mph NNW8.0 kmh NNW 9.0 mph14.5 kmh 29.63 in1003.4 mb 0.00 in0.0 mm 0.00 in0.0 mm 0.00 in0.0 mm
01:35 AM 43.8°F6.6°C 38.7°F3.7°C 82% 4.0 mph N6.4 kmh N 9.0 mph14.5 kmh 29.63 in1003.4 mb 0.00 in0.0 mm 0.00 in0.0 mm 0.00 in0.0 mm
01:30 AM 43.9°F6.6°C 38.8°F3.8°C 82% 5.0 mph NW8.0 kmh NW 13.0 mph20.9 kmh 29.63 in1003.4 mb 0.00 in0.0 mm 0.00 in0.0 mm 0.00 in0.0 mm
01:25 AM 43.9°F6.6°C 39.1°F3.9°C 83% 8.0 mph N12.9 kmh N 9.0 mph14.5 kmh 29.63 in1003.4 mb 0.00 in0.0 mm 0.00 in0.0 mm 0.00 in0.0 mm
01:20 AM 43.9°F6.6°C 38.8°F3.8°C 82% 6.0 mph NNW9.7 kmh NNW 9.0 mph14.5 kmh 29.63 in1003.4 mb 0.00 in0.0 mm 0.00 in0.0 mm 0.00 in0.0 mm
01:15 AM 43.9°F6.6°C 38.8°F3.8°C 82% 9.0 mph N14.5 kmh N 13.0 mph20.9 kmh 29.63 in1003.4 mb 0.00 in0.0 mm 0.00 in0.0 mm 0.00 in0.0 mm
01:10 AM 43.9°F6.6°C 38.8°F3.8°C 82% 12.0 mph NNW19.3 kmh NNW 12.0 mph19.3 kmh 29.64 in1003.7 mb 0.00 in0.0 mm 0.00 in0.0 mm 0.00 in0.0 mm
01:05 AM 43.9°F6.6°C 38.8°F3.8°C 82% 11.0 mph NNW17.7 kmh NNW 14.0 mph22.5 kmh 29.64 in1003.7 mb 0.00 in0.0 mm 0.00 in0.0 mm 0.00 in0.0 mm
01:00 AM 44.0°F6.7°C 39.2°F4.0°C 83% 10.0 mph N16.1 kmh N 13.0 mph20.9 kmh 29.63 in1003.4 mb 0.00 in0.0 mm 0.00 in0.0 mm 0.00 in0.0 mm
12:55 AM 44.0°F6.7°C 38.9°F3.8°C 82% 13.0 mph N20.9 kmh N 13.0 mph20.9 kmh 29.64 in1003.7 mb 0.00 in0.0 mm 0.00 in0.0 mm 0.00 in0.0 mm
12:50 AM 44.1°F6.7°C 39.0°F3.9°C 82% 8.0 mph N12.9 kmh N 11.0 mph17.7 kmh 29.65 in1004.1 mb 0.00 in0.0 mm 0.00 in0.0 mm 0.00 in0.0 mm
12:45 AM 44.1°F6.7°C 39.0°F3.9°C 82% 11.0 mph N17.7 kmh N 11.0 mph17.7 kmh 29.64 in1003.7 mb 0.00 in0.0 mm 0.00 in0.0 mm 0.00 in0.0 mm
12:40 AM 44.1°F6.7°C 39.0°F3.9°C 82% 7.0 mph NE11.3 kmh NE 10.0 mph16.1 kmh 29.64 in1003.7 mb 0.00 in0.0 mm 0.00 in0.0 mm 0.00 in0.0 mm
12:35 AM 44.2°F6.8°C 39.1°F3.9°C 82% 19.0 mph N30.6 kmh N 19.0 mph30.6 kmh 29.64 in1003.7 mb 0.00 in0.0 mm 0.00 in0.0 mm 0.00 in0.0 mm
12:30 AM 44.2°F6.8°C 38.8°F3.8°C 81% 12.0 mph N19.3 kmh N 13.0 mph20.9 kmh 29.65 in1004.1 mb 0.00 in0.0 mm 0.00 in0.0 mm 0.00 in0.0 mm
12:25 AM 44.3°F6.8°C 38.9°F3.8°C 81% 11.0 mph NNE17.7 kmh NNE 11.0 mph17.7 kmh 29.65 in1004.1 mb 0.00 in0.0 mm 0.00 in0.0 mm 0.00 in0.0 mm
12:20 AM 44.4°F6.9°C 38.9°F3.8°C 81% 9.0 mph N14.5 kmh N 12.0 mph19.3 kmh 29.65 in1004.1 mb 0.00 in0.0 mm 0.00 in0.0 mm 0.00 in0.0 mm
12:15 AM 44.4°F6.9°C 39.3°F4.1°C 82% 17.0 mph NE27.4 kmh NE 17.0 mph27.4 kmh 29.65 in1004.1 mb 0.00 in0.0 mm 0.00 in0.0 mm 0.00 in0.0 mm
12:10 AM 44.4°F6.9°C 38.9°F3.8°C 81% 8.0 mph NNE12.9 kmh NNE 14.0 mph22.5 kmh 29.65 in1004.1 mb 0.00 in0.0 mm 0.00 in0.0 mm 0.00 in0.0 mm
12:04 AM 44.5°F6.9°C 39.0°F3.9°C 81% 9.0 mph N14.5 kmh N 18.0 mph29.0 kmh 29.65 in1004.1 mb 0.00 in0.0 mm 0.00 in0.0 mm 0.00 in0.0 mm
12:00 AM 44.5°F6.9°C 39.0°F3.9°C 81% 5.0 mph N8.0 kmh N 8.0 mph12.9 kmh 29.65 in1004.1 mb 0.00 in0.0 mm 0.00 in0.0 mm 0.00 in0.0 mm